Time;durP1;ratioP1;P1;durP2;ratioP2;P2;SDS_P1;SDS_P2;PMS_P1;PMS_P2;Temp;Humidity;BMP_temperature;BMP_pressure;BME280_temperature;BME280_humidity;BME280_pressure;Samples;Min_cycle;Max_cycle;Signal;HPM_P1;HPM_P2
2021/06/28 00:00:56;;;;;;;1.23;1.20;;;26.50;45.90;;;30.32;30.46;101347.69;5134077;28;20039;-51
2021/06/28 00:03:22;;;;;;;1.10;1.10;;;26.50;45.90;;;30.30;30.54;101350.56;5113741;28;20120;-53
2021/06/28 00:05:49;;;;;;;1.10;1.10;;;26.50;45.90;;;30.32;30.43;101349.53;5133696;28;20051;-51
2021/06/28 00:08:15;;;;;;;1.38;1.27;;;26.50;46.00;;;30.27;30.65;101345.44;5133615;28;20058;-49
2021/06/28 00:10:41;;;;;;;1.17;1.13;;;26.50;45.90;;;30.28;30.61;101348.97;5133745;28;20047;-52
2021/06/28 00:13:06;;;;;;;1.40;1.30;;;26.50;46.00;;;30.26;30.69;101345.59;5134015;28;20043;-53
2021/06/28 00:15:40;;;;;;;1.05;1.05;;;26.40;46.00;;;30.21;30.69;101342.47;5133850;28;20043;-53
2021/06/28 00:18:08;;;;;;;1.00;1.00;;;26.40;46.00;;;30.22;30.65;101352.25;5133673;28;20492;-51
2021/06/28 00:20:34;;;;;;;1.40;1.30;;;26.40;46.00;;;30.24;30.61;101358.38;5133476;28;20047;-53
2021/06/28 00:23:02;;;;;;;1.20;1.10;;;26.40;46.00;;;30.20;30.74;101351.56;5133508;28;20051;-52
2021/06/28 00:25:29;;;;;;;1.30;1.20;;;26.40;46.10;;;30.17;30.52;101343.75;5133461;28;20122;-53
2021/06/28 00:27:55;;;;;;;1.00;1.00;;;26.40;46.00;;;30.21;30.81;101356.81;5133433;28;20400;-47
2021/06/28 00:30:22;;;;;;;0.98;0.98;;;26.40;46.10;;;30.20;30.60;101359.63;5133664;28;20043;-53
2021/06/28 00:32:49;;;;;;;1.27;1.17;;;26.40;46.10;;;30.17;30.79;101355.41;5133305;28;20111;-49
2021/06/28 00:35:18;;;;;;;1.35;1.25;;;26.40;46.10;;;30.17;30.74;101355.41;5133378;28;20043;-48
2021/06/28 00:37:45;;;;;;;1.10;1.10;;;26.30;46.10;;;30.16;30.73;101352.84;5133616;28;20403;-52
2021/06/28 00:40:13;;;;;;;1.30;1.20;;;26.30;46.20;;;30.16;30.93;101359.09;5133113;28;20043;-52
2021/06/28 00:42:40;;;;;;;1.23;1.13;;;26.30;46.20;;;30.13;30.96;101362.06;5133538;28;20051;-50
2021/06/28 00:45:27;;;;;;;0.90;0.90;;;26.30;46.20;;;30.07;30.90;101358.09;5114055;28;20062;-48
2021/06/28 00:48:03;;;;;;;1.17;1.17;;;26.30;46.20;;;30.13;30.97;101358.53;5133522;28;20047;-52
2021/06/28 00:50:31;;;;;;;1.00;1.00;;;26.30;46.20;;;30.09;30.73;101353.41;5133517;28;20047;-51
2021/06/28 00:53:01;;;;;;;1.33;1.23;;;26.30;46.20;;;30.08;30.79;101349.00;5133154;28;20039;-51
2021/06/28 00:55:28;;;;;;;1.10;1.10;;;26.30;46.20;;;30.09;30.80;101352.56;5114932;28;20043;-49
2021/06/28 00:57:54;;;;;;;1.10;1.10;;;26.30;46.20;;;30.07;31.00;101360.81;5136740;28;20051;-49
2021/06/28 01:00:21;;;;;;;1.17;1.17;;;26.30;46.30;;;30.09;30.72;101363.34;5136589;28;20067;-52
2021/06/28 01:02:47;;;;;;;1.10;1.10;;;26.30;46.30;;;30.08;30.96;101367.03;5136861;28;20134;-51
2021/06/28 01:05:25;;;;;;;1.15;1.10;;;26.30;46.30;;;30.03;31.05;101359.38;5136653;28;20047;-52
2021/06/28 01:07:51;;;;;;;0.98;0.98;;;26.30;46.30;;;30.04;31.22;101361.09;5136515;28;20130;-51
2021/06/28 01:10:19;;;;;;;1.30;1.20;;;26.20;46.30;;;30.03;30.93;101353.97;5136505;28;20047;-50
2021/06/28 01:12:48;;;;;;;1.38;1.27;;;26.20;46.30;;;30.05;30.84;101357.38;5136677;28;20043;-53
2021/06/28 01:15:15;;;;;;;1.13;1.13;;;26.20;46.30;;;30.02;31.10;101357.69;5136556;28;20047;-51
2021/06/28 01:17:41;;;;;;;1.10;1.10;;;26.20;46.40;;;30.04;31.04;101357.53;5136379;28;20043;-50
2021/06/28 01:20:13;;;;;;;1.00;1.00;;;26.20;46.40;;;30.01;31.00;101363.22;5136326;28;20126;-51
2021/06/28 01:22:46;;;;;;;1.17;1.13;;;26.20;46.40;;;29.98;31.06;101363.50;5136317;28;20055;-53
2021/06/28 01:25:16;;;;;;;1.10;1.10;;;26.20;46.40;;;29.98;30.98;101356.25;5136450;28;20122;-51
2021/06/28 01:27:43;;;;;;;1.20;1.15;;;26.20;46.40;;;29.99;30.77;101357.09;5136447;28;20047;-51
2021/06/28 01:30:17;;;;;;;1.10;1.10;;;26.20;46.40;;;29.96;30.88;101354.72;5136512;28;20476;-52
2021/06/28 01:32:44;;;;;;;1.20;1.17;;;26.20;46.50;;;29.98;31.14;101358.09;5136459;28;20043;-51
2021/06/28 01:35:12;;;;;;;1.05;1.05;;;26.20;46.50;;;29.96;30.95;101346.63;5136173;28;20902;-51
2021/06/28 01:37:39;;;;;;;1.23;1.13;;;26.20;46.50;;;29.97;31.05;101356.41;5135963;28;20051;-55
2021/06/28 01:40:08;;;;;;;1.25;1.15;;;26.10;46.50;;;29.93;31.18;101353.13;5136326;28;20066;-53
2021/06/28 01:42:35;;;;;;;1.17;1.08;;;26.10;46.50;;;29.94;31.09;101362.94;5135905;28;20043;-49
2021/06/28 01:45:09;;;;;;;1.00;1.00;;;26.10;46.50;;;29.92;31.12;101352.28;5135925;28;20043;-51
2021/06/28 01:47:35;;;;;;;1.02;1.02;;;26.10;46.50;;;29.89;31.21;101349.88;5135744;28;20047;-46
2021/06/28 01:50:01;;;;;;;1.02;1.02;;;26.10;46.50;;;29.92;31.11;101359.50;5117504;28;20051;-54
2021/06/28 01:52:26;;;;;;;1.38;1.27;;;26.10;46.50;;;29.91;31.15;101355.13;5135766;28;20062;-54
2021/06/28 01:54:52;;;;;;;1.35;1.25;;;26.00;46.50;;;29.89;31.27;101359.81;5116010;28;20044;-47
2021/06/28 01:57:18;;;;;;;1.00;1.00;;;26.00;46.60;;;29.88;31.20;101356.25;5135630;28;20058;-46
2021/06/28 01:59:44;;;;;;;1.30;1.20;;;26.10;46.60;;;29.82;31.15;101342.50;5135932;28;20047;-52
2021/06/28 02:02:10;;;;;;;1.10;1.10;;;26.10;46.60;;;29.86;31.32;101362.78;5136133;28;20043;-50
2021/06/28 02:04:36;;;;;;;1.00;1.00;;;26.00;46.60;;;29.84;31.04;101348.63;5135726;28;20047;-49
2021/06/28 02:07:07;;;;;;;1.05;1.02;;;26.00;46.70;;;29.81;31.28;101352.44;5134252;27;20058;-51
2021/06/28 02:09:35;;;;;;;1.40;1.30;;;26.00;46.70;;;29.83;31.33;101347.75;5135400;28;20047;-51
2021/06/28 02:12:02;;;;;;;0.95;0.95;;;26.00;46.70;;;29.82;31.31;101342.50;5135811;28;20446;-53
2021/06/28 02:14:27;;;;;;;1.30;1.20;;;26.00;46.70;;;29.81;31.15;101338.97;5135441;28;20054;-48
2021/06/28 02:16:53;;;;;;;1.17;1.13;;;26.00;46.70;;;29.78;31.17;101331.16;5135887;28;20055;-47
2021/06/28 02:19:19;;;;;;;1.20;1.10;;;26.00;46.70;;;29.79;31.37;101332.88;5135327;28;20515;-46
2021/06/28 02:21:47;;;;;;;1.17;1.17;;;26.00;46.80;;;29.74;31.43;101316.25;5135604;28;20047;-52
2021/06/28 02:24:15;;;;;;;1.10;1.10;;;26.00;46.80;;;29.76;31.38;101322.31;5117055;28;20051;-48
2021/06/28 02:26:44;;;;;;;1.30;1.20;;;26.00;46.80;;;29.74;31.34;101325.16;5132560;28;20055;-48
2021/06/28 02:29:11;;;;;;;0.80;0.80;;;26.00;46.80;;;29.75;31.29;101323.31;5135260;28;20096;-49
2021/06/28 02:31:38;;;;;;;1.17;1.17;;;25.90;46.80;;;29.74;31.48;101321.63;5135228;28;20042;-49
2021/06/28 02:34:04;;;;;;;1.38;1.27;;;25.90;46.80;;;29.71;31.43;101322.75;5135053;28;20075;-50
2021/06/28 02:36:30;;;;;;;1.10;1.10;;;25.90;46.80;;;29.68;31.29;101320.34;5135229;28;20492;-53
2021/06/28 02:38:58;;;;;;;0.93;0.93;;;25.90;46.80;;;29.70;31.51;101326.47;5131388;28;20107;-50
2021/06/28 02:41:25;;;;;;;1.33;1.23;;;25.90;46.90;;;29.67;31.44;101320.47;5135138;28;20039;-51
2021/06/28 02:43:53;;;;;;;1.25;1.15;;;25.90;46.90;;;29.69;31.62;101308.56;5135248;28;20043;-49
2021/06/28 02:46:21;;;;;;;1.15;1.10;;;25.90;46.90;;;29.67;31.38;101323.16;5135269;28;20395;-52
2021/06/28 02:48:47;;;;;;;1.35;1.25;;;25.90;47.00;;;29.66;31.55;101308.84;5134781;28;20396;-52
2021/06/28 02:51:14;;;;;;;1.20;1.20;;;25.90;47.00;;;29.67;31.49;101318.66;5113044;28;20040;-53
2021/06/28 02:53:40;;;;;;;1.23;1.13;;;25.90;47.00;;;29.64;31.59;101310.00;5116642;28;20047;-49
2021/06/28 02:56:12;;;;;;;1.02;1.02;;;25.80;47.00;;;29.64;31.61;101312.69;5135398;28;20126;-48
2021/06/28 02:58:55;;;;;;;1.58;1.48;;;25.80;47.00;;;29.61;31.46;101315.66;5135073;28;20513;-47
2021/06/28 03:01:25;;;;;;;1.30;1.20;;;25.80;47.00;;;29.61;31.66;101307.59;5134729;28;20050;-47
2021/06/28 03:03:51;;;;;;;1.10;1.10;;;25.80;47.00;;;29.62;31.52;101309.28;5134824;28;20050;-49
2021/06/28 03:06:18;;;;;;;1.10;1.10;;;25.80;47.00;;;29.63;31.66;101310.97;5134732;28;20083;-46
2021/06/28 03:08:45;;;;;;;1.10;1.10;;;25.80;47.00;;;29.62;31.61;101315.53;5130736;28;20496;-49
2021/06/28 03:11:13;;;;;;;1.00;1.00;;;25.80;47.00;;;29.58;31.67;101308.69;5134578;28;20054;-50
2021/06/28 03:13:39;;;;;;;1.08;1.05;;;25.80;47.00;;;29.62;31.59;101303.88;5134485;28;20504;-53
2021/06/28 03:16:07;;;;;;;1.00;1.00;;;25.80;46.90;;;29.64;31.49;101310.84;5114958;28;20086;-51
2021/06/28 03:18:34;;;;;;;1.30;1.20;;;25.90;47.00;;;29.65;31.45;101314.38;5115768;28;20497;-49
2021/06/28 03:21:00;;;;;;;1.35;1.25;;;25.90;46.90;;;29.67;31.60;101312.38;5134502;28;20050;-51
2021/06/28 03:23:27;;;;;;;1.00;1.00;;;26.00;47.00;;;29.71;31.39;101319.22;5115920;28;20130;-49
2021/06/28 03:25:53;;;;;;;0.90;0.90;;;26.00;46.90;;;29.71;31.39;101316.50;5134267;28;20047;-51
2021/06/28 03:28:19;;;;;;;1.08;1.08;;;26.00;46.80;;;29.72;31.17;101321.75;5134330;28;20039;-48
2021/06/28 03:30:45;;;;;;;1.08;1.08;;;26.00;46.80;;;29.73;31.34;101314.53;5134219;28;20047;-53
2021/06/28 03:33:11;;;;;;;1.00;1.00;;;26.00;46.80;;;29.72;31.20;101323.59;5134083;28;20043;-49
2021/06/28 03:35:37;;;;;;;1.17;1.10;;;26.00;46.80;;;29.73;31.41;101326.16;5134171;28;20043;-50
2021/06/28 03:38:03;;;;;;;1.17;1.15;;;26.00;46.80;;;29.75;31.52;101329.56;5134152;28;20416;-49
2021/06/28 03:40:32;;;;;;;1.00;1.00;;;26.00;46.80;;;29.79;31.43;101326.59;5134098;28;20158;-51
2021/06/28 03:43:02;;;;;;;1.17;1.10;;;26.10;46.70;;;29.86;31.17;101331.28;5134113;28;20139;-49
2021/06/28 03:45:28;;;;;;;0.87;0.87;;;26.10;46.60;;;29.92;31.09;101325.34;5134120;28;20492;-49
2021/06/28 03:47:54;;;;;;;1.10;1.10;;;26.20;46.50;;;29.97;31.25;101324.91;5114552;28;20285;-50
2021/06/28 03:50:20;;;;;;;1.10;1.10;;;26.30;46.40;;;30.02;31.16;101332.53;5133952;28;20084;-47
2021/06/28 03:52:45;;;;;;;1.27;1.20;;;26.30;46.30;;;30.05;31.01;101333.09;5134117;28;20059;-51
2021/06/28 03:55:11;;;;;;;1.00;1.00;;;26.30;46.20;;;30.06;30.93;101328.59;5133835;28;20047;-47
2021/06/28 03:57:38;;;;;;;1.10;1.10;;;26.40;46.10;;;30.14;30.87;101328.72;5132564;28;20126;-48
2021/06/28 04:00:12;;;;;;;1.10;1.10;;;26.40;46.00;;;30.16;30.94;101331.28;5134187;28;20138;-51
2021/06/28 04:02:42;;;;;;;1.25;1.15;;;26.50;46.00;;;30.23;30.74;101335.91;5133615;28;20503;-49
2021/06/28 04:05:12;;;;;;;1.00;1.00;;;26.50;45.90;;;30.27;30.80;101329.25;5133728;28;20053;-49
2021/06/28 04:07:38;;;;;;;1.13;1.10;;;26.50;45.80;;;30.33;30.54;101326.97;5134061;28;20043;-50
2021/06/28 04:10:06;;;;;;;0.85;0.85;;;26.60;45.80;;;30.38;30.56;101332.81;5133702;28;20553;-51
2021/06/28 04:12:32;;;;;;;1.50;1.40;;;26.70;45.70;;;30.44;30.54;101329.53;5134099;28;20047;-51
2021/06/28 04:14:57;;;;;;;1.00;1.00;;;26.70;45.60;;;30.46;30.45;101316.75;5115121;28;20155;-51
2021/06/28 04:17:25;;;;;;;0.90;0.90;;;26.70;45.60;;;30.53;30.40;101327.78;5115344;28;20043;-48
2021/06/28 04:19:51;;;;;;;1.20;1.10;;;26.80;45.60;;;30.58;30.28;101326.34;5111364;28;20043;-51
2021/06/28 04:22:18;;;;;;;1.00;1.00;;;26.80;45.50;;;30.63;30.34;101321.34;5133441;28;20054;-53
2021/06/28 04:24:43;;;;;;;0.98;0.98;;;26.90;45.50;;;30.65;30.14;101315.81;5133545;28;20075;-53
2021/06/28 04:27:12;;;;;;;1.10;1.02;;;26.90;45.40;;;30.72;30.25;101321.47;5133542;28;20396;-50
2021/06/28 04:29:39;;;;;;;1.30;1.20;;;26.90;45.30;;;30.77;30.15;101316.47;5135100;27;20045;-50
2021/06/28 04:32:06;;;;;;;1.27;1.17;;;26.90;45.30;;;30.80;30.08;101317.00;5121375;27;20442;-48
2021/06/28 04:34:31;;;;;;;0.98;0.98;;;27.00;45.30;;;30.84;29.97;101321.13;5140199;27;20042;-49
2021/06/28 04:36:57;;;;;;;1.42;1.33;;;27.00;45.20;;;30.87;29.87;101306.47;5140053;27;20047;-50
2021/06/28 04:39:23;;;;;;;0.88;0.88;;;27.10;45.20;;;30.91;29.74;101307.03;5140539;27;20130;-49
2021/06/28 04:41:49;;;;;;;1.15;1.05;;;27.10;45.20;;;30.99;29.90;101312.53;5140115;27;20063;-53
2021/06/28 04:44:15;;;;;;;1.05;1.00;;;27.10;45.10;;;31.03;29.75;101309.41;5140177;27;20035;-47
2021/06/28 04:46:41;;;;;;;1.00;1.00;;;27.20;45.10;;;31.05;29.67;101311.09;5140069;27;20047;-50
2021/06/28 04:49:06;;;;;;;1.30;1.20;;;27.20;45.00;;;31.08;29.52;101305.41;5140049;27;20095;-49
2021/06/28 04:51:33;;;;;;;1.30;1.20;;;27.20;44.90;;;31.14;29.61;101304.78;5139943;27;20039;-52
2021/06/28 04:53:59;;;;;;;1.35;1.25;;;27.30;44.90;;;31.19;29.42;101311.44;5140245;27;20082;-51
2021/06/28 04:56:25;;;;;;;1.20;1.10;;;27.30;44.80;;;31.24;29.62;101297.47;5121684;27;20054;-49
2021/06/28 04:58:51;;;;;;;1.10;1.10;;;27.30;44.80;;;31.31;29.54;101305.81;5139919;27;20054;-48
2021/06/28 05:01:17;;;;;;;1.13;1.10;;;27.40;44.80;;;31.33;29.43;101298.41;5103202;27;20048;-47
2021/06/28 05:03:43;;;;;;;0.93;0.93;;;27.40;45.20;;;31.37;29.41;101299.78;5121588;27;20107;-48
2021/06/28 05:06:08;;;;;;;1.05;1.02;;;27.50;44.70;;;31.42;29.33;101304.75;5139797;27;20043;-48
2021/06/28 05:08:34;;;;;;;1.23;1.13;;;27.50;44.60;;;31.44;29.18;101298.19;5139762;27;20043;-51
2021/06/28 05:11:00;;;;;;;1.20;1.10;;;27.60;44.60;;;31.49;29.27;101305.81;5139818;27;20047;-51
2021/06/28 05:13:26;;;;;;;0.98;0.90;;;27.60;44.50;;;31.55;29.27;101310.63;5139809;27;20145;-50
2021/06/28 05:15:51;;;;;;;1.30;1.20;;;27.70;44.60;;;31.58;29.04;101310.34;5139660;27;20047;-49
2021/06/28 05:18:17;;;;;;;1.00;1.00;;;27.70;44.50;;;31.63;29.07;101307.19;5139589;27;20042;-50
2021/06/28 05:20:43;;;;;;;1.10;1.10;;;27.70;44.40;;;31.66;28.94;101302.31;5139933;27;20126;-51
2021/06/28 05:23:09;;;;;;;1.08;1.02;;;27.70;44.40;;;31.67;28.92;101306.69;5139599;27;20043;-49
2021/06/28 05:25:35;;;;;;;0.90;0.90;;;27.80;44.30;;;31.71;28.98;101309.91;5139749;27;20235;-51
2021/06/28 05:28:01;;;;;;;0.90;0.90;;;27.80;44.30;;;31.74;28.89;101299.66;5139230;27;20165;-51
2021/06/28 05:30:26;;;;;;;1.00;1.00;;;27.80;44.20;;;31.74;28.78;101299.66;5139837;27;20059;-53
2021/06/28 05:32:52;;;;;;;0.82;0.82;;;27.80;44.20;;;31.81;28.95;101307.13;5139294;27;20100;-53
2021/06/28 05:35:18;;;;;;;1.00;1.00;;;27.80;44.20;;;31.81;28.93;101305.31;5120814;27;20062;-50
2021/06/28 05:37:44;;;;;;;0.80;0.80;;;27.90;44.20;;;31.85;28.83;101298.56;5118908;27;20044;-47
2021/06/28 05:40:11;;;;;;;1.15;1.05;;;27.90;44.20;;;31.88;28.77;101305.53;5139208;27;20059;-50
2021/06/28 05:42:38;;;;;;;1.10;1.00;;;27.90;44.10;;;31.88;28.77;101298.25;5136243;27;20035;-50
2021/06/28 05:45:06;;;;;;;1.00;1.00;;;28.00;44.10;;;31.92;28.63;101298.78;5116047;28;20126;-52
2021/06/28 05:47:33;;;;;;;1.10;1.10;;;28.00;44.10;;;31.94;28.99;101303.03;5135843;28;20043;-51
2021/06/28 05:49:59;;;;;;;0.98;0.98;;;28.00;44.00;;;31.94;28.67;101292.22;5135787;28;20043;-48
2021/06/28 05:52:25;;;;;;;1.20;1.10;;;28.10;44.00;;;31.99;28.61;101302.53;5135780;28;20073;-53
2021/06/28 05:54:52;;;;;;;0.90;0.90;;;28.10;44.00;;;32.00;28.62;101298.00;5115855;28;20088;-51
2021/06/28 05:57:19;;;;;;;0.98;0.90;;;28.10;43.90;;;32.06;28.51;101300.06;5135828;28;20138;-48
2021/06/28 05:59:46;;;;;;;0.90;0.90;;;28.10;43.90;;;32.06;28.59;101302.75;5135577;28;20051;-51
2021/06/28 06:02:15;;;;;;;0.95;0.95;;;28.20;43.90;;;32.08;28.84;101301.63;5135869;28;20159;-53
2021/06/28 06:04:42;;;;;;;0.98;0.98;;;28.20;43.80;;;32.10;28.74;101299.63;5135645;28;20085;-49
2021/06/28 06:07:08;;;;;;;1.10;1.10;;;28.20;43.70;;;32.14;28.67;101294.72;5135547;28;20044;-54
2021/06/28 06:09:34;;;;;;;0.90;0.90;;;28.30;43.70;;;32.20;28.42;101295.97;5115375;28;20043;-51
2021/06/28 06:12:00;;;;;;;1.05;1.05;;;28.30;43.60;;;32.19;28.65;101291.56;5135509;28;20386;-45
2021/06/28 06:14:26;;;;;;;1.35;1.05;;;28.30;43.60;;;32.25;28.51;101299.03;5135736;28;20068;-53
2021/06/28 06:16:51;;;;;;;1.20;1.20;;;28.30;43.50;;;32.27;28.43;101297.03;5135127;28;20047;-48
2021/06/28 06:19:17;;;;;;;0.90;0.90;;;28.40;43.50;;;32.31;28.52;101303.78;5135262;28;20039;-49
2021/06/28 06:21:43;;;;;;;1.00;1.00;;;28.40;43.40;;;32.37;28.46;101308.56;5135119;28;20081;-48
2021/06/28 06:24:10;;;;;;;1.10;1.10;;;28.50;43.40;;;32.41;28.47;101307.28;5135685;28;20495;-45
2021/06/28 06:26:35;;;;;;;0.90;0.90;;;28.50;43.30;;;32.43;28.16;101307.94;5135246;28;20488;-47
2021/06/28 06:29:01;;;;;;;0.98;0.98;;;28.60;43.30;;;32.47;27.84;101309.31;5135256;28;20043;-49
2021/06/28 06:31:27;;;;;;;0.90;0.90;;;28.60;43.20;;;32.54;28.11;101317.63;5135254;28;20547;-50
2021/06/28 06:33:53;;;;;;;1.00;1.00;;;28.60;43.10;;;32.59;28.25;101312.59;5135412;28;20040;-45
2021/06/28 06:36:19;;;;;;;0.75;0.75;;;28.70;43.10;;;32.63;27.78;101313.16;5135748;28;20039;-45
2021/06/28 06:38:45;;;;;;;0.93;0.93;;;28.80;43.00;;;32.70;28.03;101310.66;5134980;28;20129;-52
2021/06/28 06:41:12;;;;;;;1.13;1.02;;;28.80;42.90;;;32.75;27.74;101313.72;5135076;28;20051;-45
2021/06/28 06:43:38;;;;;;;0.80;0.80;;;28.90;42.90;;;32.80;27.85;101311.38;5135003;28;20047;-49
2021/06/28 06:46:05;;;;;;;1.00;1.00;;;28.90;42.80;;;32.83;27.77;101309.19;5135204;28;20043;-48
2021/06/28 06:48:31;;;;;;;0.90;0.90;;;28.90;42.70;;;32.89;27.37;101313.09;5134837;28;20043;-49
2021/06/28 06:50:57;;;;;;;1.08;0.98;;;29.00;42.70;;;32.94;27.80;101315.31;5135125;28;20047;-48
2021/06/28 06:53:23;;;;;;;1.45;1.35;;;29.10;42.60;;;32.99;27.50;101316.50;5134167;27;20043;-49
2021/06/28 06:55:49;;;;;;;1.15;1.05;;;29.10;42.50;;;33.03;27.50;101326.00;5134744;28;20043;-52
2021/06/28 06:58:14;;;;;;;0.93;0.93;;;29.10;42.40;;;33.09;27.65;101320.94;5134869;28;20046;-46
2021/06/28 07:00:42;;;;;;;1.00;0.93;;;29.20;42.40;;;33.10;27.40;101314.53;5134780;28;20103;-51
2021/06/28 07:03:08;;;;;;;0.80;0.80;;;29.20;42.30;;;33.16;27.31;101317.47;5134411;28;20083;-53
2021/06/28 07:05:35;;;;;;;0.90;0.90;;;29.30;42.20;;;33.20;27.01;101313.38;5134772;28;20051;-51
2021/06/28 07:08:02;;;;;;;1.00;1.00;;;29.30;42.10;;;33.23;27.42;101309.50;5134520;28;20068;-50
2021/06/28 07:10:28;;;;;;;0.90;0.90;;;29.40;42.20;;;33.30;27.35;101310.53;5134949;28;20039;-54
2021/06/28 07:12:54;;;;;;;1.20;1.10;;;29.40;42.00;;;33.33;26.96;101299.38;5099058;28;20081;-48
2021/06/28 07:15:21;;;;;;;0.80;0.80;;;29.50;41.80;;;33.37;27.07;101314.25;5134572;28;20134;-48
2021/06/28 07:17:48;;;;;;;1.13;1.13;;;29.60;42.30;;;33.41;27.08;101307.50;5134857;28;20047;-53
2021/06/28 07:20:22;;;;;;;1.33;1.13;;;29.60;41.70;;;33.41;27.25;101312.94;5134339;28;20499;-50
2021/06/28 07:22:48;;;;;;;1.05;1.02;;;29.60;41.70;;;33.41;26.68;101312.06;5134284;28;20051;-50
2021/06/28 07:25:16;;;;;;;1.00;1.00;;;29.60;41.60;;;33.42;27.18;101311.91;5134676;28;20063;-50
2021/06/28 07:27:42;;;;;;;1.08;1.08;;;29.60;41.60;;;33.44;26.73;101311.72;5134206;28;20515;-49
2021/06/28 07:30:12;;;;;;;1.30;1.20;;;29.60;41.60;;;33.40;27.20;101313.94;5134002;28;20059;-51
2021/06/28 07:32:38;;;;;;;1.02;1.02;;;29.60;41.60;;;33.42;27.06;101324.63;5134036;28;20039;-49
2021/06/28 07:35:06;;;;;;;1.13;1.13;;;29.60;41.60;;;33.42;26.95;101320.03;5134028;28;20531;-51
2021/06/28 07:37:32;;;;;;;1.20;1.10;;;29.70;41.60;;;33.42;26.91;101322.75;5134127;28;20039;-54
2021/06/28 07:39:58;;;;;;;2.70;1.23;;;29.70;41.60;;;33.46;26.63;101314.28;5133704;28;20116;-49
2021/06/28 07:42:25;;;;;;;0.93;0.93;;;29.70;41.50;;;33.50;26.70;101315.66;5133973;28;20047;-50
2021/06/28 07:44:52;;;;;;;1.00;1.00;;;29.70;41.40;;;33.50;26.99;101310.22;5133877;28;20569;-48
2021/06/28 07:47:18;;;;;;;1.38;1.15;;;29.80;41.50;;;33.55;26.55;101319.53;5116112;28;20042;-50
2021/06/28 07:49:45;;;;;;;0.80;0.80;;;29.80;41.40;;;33.54;26.85;101323.25;5133945;28;20081;-53
2021/06/28 07:52:11;;;;;;;1.00;1.00;;;29.80;41.40;;;33.54;26.81;101315.13;5133824;28;20103;-50
2021/06/28 07:54:40;;;;;;;1.15;1.05;;;29.80;41.40;;;33.48;26.76;101314.94;5115216;28;20035;-51
2021/06/28 07:57:07;;;;;;;1.08;1.02;;;29.80;41.40;;;33.56;26.92;101315.84;5115199;28;20476;-53
2021/06/28 07:59:33;;;;;;;1.17;1.08;;;29.70;41.30;;;33.55;26.86;101311.41;5134034;28;20069;-46
2021/06/28 08:01:59;;;;;;;1.27;1.17;;;29.80;41.30;;;33.58;26.49;101310.22;5133507;28;20043;-50
2021/06/28 08:04:27;;;;;;;1.00;1.00;;;29.80;41.80;;;33.58;26.44;101305.66;5132492;27;20417;-54
2021/06/28 08:06:54;;;;;;;1.08;1.08;;;29.80;41.20;;;33.63;26.73;101307.00;5133457;28;20075;-49
2021/06/28 08:09:20;;;;;;;0.95;0.95;;;29.90;41.20;;;33.67;26.80;101300.25;5096241;28;20056;-48
2021/06/28 08:11:46;;;;;;;1.02;1.02;;;29.90;41.10;;;33.71;26.48;101299.75;5133841;28;20050;-51
2021/06/28 08:14:13;;;;;;;1.10;1.00;;;30.00;41.10;;;33.78;26.32;101298.06;5133727;28;20098;-52
2021/06/28 08:16:39;;;;;;;1.40;1.30;;;30.00;41.00;;;33.79;26.30;101288.88;5133225;28;20050;-48
2021/06/28 08:19:05;;;;;;;1.17;1.15;;;30.10;41.00;;;33.85;26.57;101297.34;5133407;28;20047;-49
2021/06/28 08:21:34;;;;;;;2.20;0.98;;;30.10;41.00;;;33.86;26.26;101283.63;5133666;28;20488;-51
2021/06/28 08:23:59;;;;;;;1.13;1.00;;;30.10;40.90;;;33.92;26.17;101288.38;5113723;28;20039;-51
2021/06/28 08:26:25;;;;;;;1.83;1.17;;;30.20;40.90;;;33.92;26.31;101285.66;5115093;28;20050;-51
2021/06/28 08:28:51;;;;;;;1.02;1.00;;;30.20;40.80;;;33.99;26.39;101290.41;5133539;28;20043;-49
2021/06/28 08:31:17;;;;;;;1.10;1.10;;;30.20;40.80;;;34.02;25.96;101287.38;5113793;28;20096;-52
2021/06/28 08:33:44;;;;;;;1.42;1.33;;;30.20;40.70;;;34.02;26.41;101276.50;5133329;28;20059;-52
2021/06/28 08:36:10;;;;;;;1.00;1.00;;;30.20;40.80;;;34.04;26.15;101280.72;5115270;28;20074;-52
2021/06/28 08:38:36;;;;;;;1.30;1.20;;;30.20;40.70;;;34.02;26.01;101274.63;5115413;28;20051;-51
2021/06/28 08:41:04;;;;;;;1.13;1.10;;;30.20;40.70;;;34.02;26.02;101261.06;5133688;28;20051;-51
2021/06/28 08:43:30;;;;;;;1.60;1.50;;;30.20;40.70;;;34.04;26.29;101278.00;5133278;28;20058;-49
2021/06/28 08:45:56;;;;;;;1.05;1.02;;;30.20;40.70;;;34.00;26.24;101283.94;5114976;28;20043;-48
2021/06/28 08:48:22;;;;;;;1.50;1.40;;;30.20;40.70;;;34.00;26.33;101275.81;5133050;28;20058;-52
2021/06/28 08:50:48;;;;;;;0.90;0.90;;;30.20;40.80;;;33.96;26.15;101276.19;5133266;28;20047;-49
2021/06/28 08:53:15;;;;;;;1.40;1.30;;;30.20;40.80;;;33.92;26.50;101266.69;5132901;28;20484;-48
2021/06/28 08:55:42;;;;;;;1.52;1.38;;;30.20;40.80;;;33.95;26.47;101269.06;5133055;28;20522;-51
2021/06/28 08:58:08;;;;;;;1.20;1.10;;;30.20;40.80;;;33.92;26.04;101263.97;5133046;28;20055;-53
2021/06/28 09:00:33;;;;;;;1.23;1.13;;;30.20;40.80;;;33.89;26.17;101264.31;5133039;28;20062;-50
2021/06/28 09:03:03;;;;;;;1.33;1.10;;;30.10;40.80;;;33.89;26.48;101266.19;5133041;28;20137;-47
2021/06/28 09:05:56;;;;;;;1.52;1.42;;;30.10;40.80;;;33.85;26.35;101262.97;5132886;28;20043;-50
2021/06/28 09:08:23;;;;;;;1.38;1.27;;;30.10;40.90;;;33.83;26.25;101258.72;5131749;28;20058;-50
2021/06/28 09:10:49;;;;;;;1.45;1.27;;;30.10;40.90;;;33.82;26.50;101262.47;5133188;28;20047;-52
2021/06/28 09:13:14;;;;;;;1.52;1.30;;;30.10;40.90;;;33.76;26.20;101259.44;5132577;28;20058;-51
2021/06/28 09:15:48;;;;;;;1.10;1.10;;;30.10;41.00;;;33.74;26.30;101264.16;5115292;28;20100;-52
2021/06/28 09:18:26;;;;;;;1.40;1.30;;;30.00;41.00;;;33.72;26.24;101263.47;5118706;28;20054;-47
2021/06/28 09:21:10;;;;;;;1.50;1.40;;;30.00;41.00;;;33.68;26.57;101247.69;5136337;28;20095;-49
2021/06/28 09:23:40;;;;;;;1.50;1.38;;;30.00;41.00;;;33.64;26.37;101263.44;5136883;28;20099;-52
2021/06/28 09:26:15;;;;;;;1.58;1.48;;;30.00;41.10;;;33.64;26.33;101266.16;5136265;28;20047;-52
2021/06/28 09:28:45;;;;;;;1.50;1.40;;;30.00;41.10;;;33.63;26.56;101263.63;5136011;28;20055;-53
2021/06/28 09:31:36;;;;;;;1.30;1.20;;;30.00;41.10;;;33.61;26.51;101261.06;5116684;28;20055;-52
2021/06/28 09:34:19;;;;;;;1.58;1.33;;;30.00;41.10;;;33.57;26.53;101257.84;5135947;28;20481;-52
2021/06/28 09:36:54;;;;;;;1.40;1.30;;;30.00;41.10;;;33.58;26.92;101262.28;5136299;28;20075;-54
2021/06/28 09:39:33;;;;;;;1.20;1.10;;;30.00;41.10;;;33.54;26.66;101260.91;5136022;28;20057;-53
2021/06/28 09:42:11;;;;;;;1.92;1.20;;;30.00;41.10;;;33.56;26.50;101267.03;5135567;28;20382;-47
2021/06/28 09:45:02;;;;;;;1.55;1.45;;;30.00;41.20;;;33.54;26.92;101263.63;5135741;28;20129;-54
2021/06/28 09:47:30;;;;;;;2.93;1.50;;;30.00;41.10;;;33.55;26.97;101257.19;5117333;28;20043;-52
2021/06/28 09:50:11;;;;;;;1.75;1.60;;;30.00;41.10;;;33.53;26.73;101263.78;5117252;28;20288;-49
2021/06/28 09:52:53;;;;;;;2.05;1.50;;;30.00;41.10;;;33.51;26.79;101258.53;5136362;28;20051;-52
2021/06/28 09:55:39;;;;;;;1.42;1.33;;;30.00;41.10;;;33.49;26.92;101252.44;5117081;28;20073;-46
2021/06/28 09:58:14;;;;;;;1.95;1.30;;;30.00;41.10;;;33.47;26.63;101256.34;5135485;28;20134;-52
2021/06/28 10:00:46;;;;;;;1.50;1.40;;;29.90;41.10;;;33.50;26.50;101262.28;5117719;28;20047;-51
2021/06/28 10:03:31;;;;;;;1.52;1.42;;;29.90;41.10;;;33.50;26.63;101251.44;5135526;28;20500;-49
2021/06/28 10:06:13;;;;;;;1.50;1.40;;;29.90;41.10;;;33.50;26.57;101250.59;5135473;28;20051;-51
2021/06/28 10:08:53;;;;;;;2.13;1.10;;;30.00;41.10;;;33.49;27.08;101252.44;5117106;28;20506;-53
2021/06/28 10:11:25;;;;;;;1.40;1.30;;;30.00;41.10;;;33.49;27.05;101249.72;5135768;28;20082;-51
2021/06/28 10:13:57;;;;;;;1.58;1.40;;;30.00;41.10;;;33.50;27.05;101250.59;5135727;28;20407;-50
2021/06/28 10:16:29;;;;;;;2.28;1.50;;;29.90;41.00;;;33.45;26.92;101242.97;5135546;28;20062;-52